sensor_id;sensor_type;location;lat;lon;timestamp;pressure;altitude;pressure_sealevel;temperature;humidity
51759;BME280;66684;47.568;18.734;2023-01-28T00:02:03;99507.88;;;-0.55;100.00
51759;BME280;66684;47.568;18.734;2023-01-28T00:04:29;99517.91;;;-0.57;100.00
51759;BME280;66684;47.568;18.734;2023-01-28T00:06:54;99518.41;;;-0.61;100.00
51759;BME280;66684;47.568;18.734;2023-01-28T00:09:20;99521.31;;;-0.56;100.00
51759;BME280;66684;47.568;18.734;2023-01-28T00:11:46;99521.41;;;-0.44;100.00
51759;BME280;66684;47.568;18.734;2023-01-28T00:14:12;99531.84;;;-0.41;100.00
51759;BME280;66684;47.568;18.734;2023-01-28T00:16:38;99530.06;;;-0.42;100.00
51759;BME280;66684;47.568;18.734;2023-01-28T00:19:04;99536.91;;;-0.72;100.00
51759;BME280;66684;47.568;18.734;2023-01-28T00:21:30;99532.34;;;-0.76;100.00
51759;BME280;66684;47.568;18.734;2023-01-28T00:23:56;99534.00;;;-0.76;100.00
51759;BME280;66684;47.568;18.734;2023-01-28T00:26:22;99531.34;;;-0.68;100.00
51759;BME280;66684;47.568;18.734;2023-01-28T00:28:49;99536.44;;;-0.68;100.00
51759;BME280;66684;47.568;18.734;2023-01-28T00:31:19;99539.19;;;-0.85;100.00
51759;BME280;66684;47.568;18.734;2023-01-28T00:33:47;99530.06;;;-0.83;100.00
51759;BME280;66684;47.568;18.734;2023-01-28T00:36:15;99534.25;;;-0.84;100.00
51759;BME280;66684;47.568;18.734;2023-01-28T00:38:41;99531.81;;;-0.82;100.00
51759;BME280;66684;47.568;18.734;2023-01-28T00:41:10;99527.53;;;-0.73;100.00
51759;BME280;66684;47.568;18.734;2023-01-28T00:43:37;99533.50;;;-0.62;100.00
51759;BME280;66684;47.568;18.734;2023-01-28T00:46:04;99537.44;;;-0.56;100.00
51759;BME280;66684;47.568;18.734;2023-01-28T00:48:29;99543.03;;;-0.49;100.00
51759;BME280;66684;47.568;18.734;2023-01-28T00:50:55;99543.41;;;-0.55;100.00
51759;BME280;66684;47.568;18.734;2023-01-28T00:53:21;99541.72;;;-0.65;100.00
51759;BME280;66684;47.568;18.734;2023-01-28T00:55:47;99544.41;;;-0.53;100.00
51759;BME280;66684;47.568;18.734;2023-01-28T00:58:13;99543.53;;;-0.43;100.00
51759;BME280;66684;47.568;18.734;2023-01-28T01:00:39;99544.53;;;-0.51;100.00
51759;BME280;66684;47.568;18.734;2023-01-28T01:03:05;99543.25;;;-0.46;100.00
51759;BME280;66684;47.568;18.734;2023-01-28T01:05:31;99548.84;;;-0.50;100.00
51759;BME280;66684;47.568;18.734;2023-01-28T01:07:59;99552.50;;;-0.27;100.00
51759;BME280;66684;47.568;18.734;2023-01-28T01:10:25;99554.41;;;-0.44;100.00
51759;BME280;66684;47.568;18.734;2023-01-28T01:12:51;99557.72;;;-0.35;100.00
51759;BME280;66684;47.568;18.734;2023-01-28T01:15:18;99555.56;;;-0.51;100.00
51759;BME280;66684;47.568;18.734;2023-01-28T01:17:46;99555.97;;;-0.57;100.00
51759;BME280;66684;47.568;18.734;2023-01-28T01:20:15;99556.94;;;-0.44;100.00
51759;BME280;66684;47.568;18.734;2023-01-28T01:22:41;99557.22;;;-0.41;100.00
51759;BME280;66684;47.568;18.734;2023-01-28T01:25:08;99552.91;;;-0.52;100.00
51759;BME280;66684;47.568;18.734;2023-01-28T01:27:35;99554.69;;;-0.31;100.00
51759;BME280;66684;47.568;18.734;2023-01-28T01:30:01;99552.16;;;-0.31;100.00
51759;BME280;66684;47.568;18.734;2023-01-28T01:32:31;99553.16;;;-0.29;100.00
51759;BME280;66684;47.568;18.734;2023-01-28T01:34:57;99553.16;;;-0.19;100.00
51759;BME280;66684;47.568;18.734;2023-01-28T01:37:23;99552.63;;;-0.15;100.00
51759;BME280;66684;47.568;18.734;2023-01-28T01:39:49;99558.22;;;-0.19;100.00
51759;BME280;66684;47.568;18.734;2023-01-28T01:42:15;99559.72;;;-0.21;100.00
51759;BME280;66684;47.568;18.734;2023-01-28T01:45:01;99561.91;;;-0.36;100.00
51759;BME280;66684;47.568;18.734;2023-01-28T01:47:47;99550.63;;;-0.19;100.00
51759;BME280;66684;47.568;18.734;2023-01-28T01:50:27;99560.34;;;-0.13;100.00
51759;BME280;66684;47.568;18.734;2023-01-28T01:52:58;99557.44;;;-0.08;100.00
51759;BME280;66684;47.568;18.734;2023-01-28T01:55:26;99555.56;;;-0.31;100.00
51759;BME280;66684;47.568;18.734;2023-01-28T01:57:57;99553.03;;;-0.41;100.00
51759;BME280;66684;47.568;18.734;2023-01-28T02:00:27;99559.22;;;-0.27;100.00
51759;BME280;66684;47.568;18.734;2023-01-28T02:02:53;99557.22;;;-0.41;100.00
51759;BME280;66684;47.568;18.734;2023-01-28T02:05:21;99552.16;;;-0.41;100.00
51759;BME280;66684;47.568;18.734;2023-01-28T02:07:49;99551.13;;;-0.33;100.00
51759;BME280;66684;47.568;18.734;2023-01-28T02:10:16;99550.87;;;-0.46;100.00
51759;BME280;66684;47.568;18.734;2023-01-28T02:12:46;99554.94;;;-0.48;100.00
51759;BME280;66684;47.568;18.734;2023-01-28T02:15:17;99557.47;;;-0.38;100.00
51759;BME280;66684;47.568;18.734;2023-01-28T02:17:44;99554.91;;;-0.28;100.00
51759;BME280;66684;47.568;18.734;2023-01-28T02:20:13;99562.38;;;-0.09;100.00
51759;BME280;66684;47.568;18.734;2023-01-28T02:30:38;99557.19;;;-0.11;100.00
51759;BME280;66684;47.568;18.734;2023-01-28T02:33:16;99565.03;;;-0.08;100.00
51759;BME280;66684;47.568;18.734;2023-01-28T02:35:49;99571.50;;;-0.01;100.00
51759;BME280;66684;47.568;18.734;2023-01-28T02:38:21;99568.97;;;0.09;100.00
51759;BME280;66684;47.568;18.734;2023-01-28T02:40:52;99573.38;;;0.12;100.00
51759;BME280;66684;47.568;18.734;2023-01-28T02:43:48;99570.12;;;-0.08;100.00
51759;BME280;66684;47.568;18.734;2023-01-28T02:49:09;99571.12;;;0.05;100.00
51759;BME280;66684;47.568;18.734;2023-01-28T02:51:52;99567.63;;;-0.28;100.00
51759;BME280;66684;47.568;18.734;2023-01-28T02:55:04;99554.69;;;-0.31;100.00
51759;BME280;66684;47.568;18.734;2023-01-28T02:57:42;99556.97;;;-0.24;100.00
51759;BME280;66684;47.568;18.734;2023-01-28T03:00:42;99554.56;;;-0.43;100.00
51759;BME280;66684;47.568;18.734;2023-01-28T03:03:24;99553.91;;;-0.50;100.00
51759;BME280;66684;47.568;18.734;2023-01-28T03:05:55;99552.41;;;-0.69;100.00
51759;BME280;66684;47.568;18.734;2023-01-28T03:08:44;99552.63;;;-0.76;100.00
51759;BME280;66684;47.568;18.734;2023-01-28T03:11:32;99555.69;;;-0.80;100.00
51759;BME280;66684;47.568;18.734;2023-01-28T03:14:18;99553.25;;;-0.99;100.00
51759;BME280;66684;47.568;18.734;2023-01-28T03:17:04;99552.09;;;-1.02;100.00
51759;BME280;66684;47.568;18.734;2023-01-28T03:19:53;99560.75;;;-0.90;100.00
51759;BME280;66684;47.568;18.734;2023-01-28T03:22:38;99556.91;;;-0.95;100.00
51759;BME280;66684;47.568;18.734;2023-01-28T03:25:27;99561.88;;;-0.97;100.00
51759;BME280;66684;47.568;18.734;2023-01-28T03:28:15;99560.50;;;-0.83;100.00
51759;BME280;66684;47.568;18.734;2023-01-28T03:31:05;99556.81;;;-0.76;100.00
51759;BME280;66684;47.568;18.734;2023-01-28T03:33:53;99558.72;;;-0.64;100.00
51759;BME280;66684;47.568;18.734;2023-01-28T03:36:38;99552.28;;;-0.50;100.00
51759;BME280;66684;47.568;18.734;2023-01-28T03:39:16;99551.50;;;-0.59;100.00
51759;BME280;66684;47.568;18.734;2023-01-28T03:41:58;99557.22;;;-0.62;100.00
51759;BME280;66684;47.568;18.734;2023-01-28T03:44:24;99551.13;;;-0.84;100.00
51759;BME280;66684;47.568;18.734;2023-01-28T03:47:10;99555.16;;;-0.76;100.00
51759;BME280;66684;47.568;18.734;2023-01-28T03:49:41;99563.69;;;-0.75;100.00
51759;BME280;66684;47.568;18.734;2023-01-28T03:52:07;99566.81;;;-0.88;100.00
51759;BME280;66684;47.568;18.734;2023-01-28T03:54:33;99564.31;;;-0.78;100.00
51759;BME280;66684;47.568;18.734;2023-01-28T03:56:59;99561.66;;;-0.79;100.00
51759;BME280;66684;47.568;18.734;2023-01-28T03:59:25;99554.53;;;-0.84;100.00
51759;BME280;66684;47.568;18.734;2023-01-28T04:01:51;99557.19;;;-0.82;100.00
51759;BME280;66684;47.568;18.734;2023-01-28T04:04:17;99555.19;;;-0.86;100.00
51759;BME280;66684;47.568;18.734;2023-01-28T04:06:53;99558.34;;;-0.99;100.00
51759;BME280;66684;47.568;18.734;2023-01-28T04:09:20;99557.44;;;-0.99;100.00
51759;BME280;66684;47.568;18.734;2023-01-28T04:11:47;99559.47;;;-0.95;100.00
51759;BME280;66684;47.568;18.734;2023-01-28T04:14:13;99571.66;;;-0.91;100.00
51759;BME280;66684;47.568;18.734;2023-01-28T04:16:41;99565.56;;;-0.83;100.00
51759;BME280;66684;47.568;18.734;2023-01-28T04:19:10;99573.19;;;-0.83;100.00
51759;BME280;66684;47.568;18.734;2023-01-28T04:21:37;99576.00;;;-0.80;100.00
51759;BME280;66684;47.568;18.734;2023-01-28T04:24:04;99579.03;;;-0.74;100.00
51759;BME280;66684;47.568;18.734;2023-01-28T04:26:30;99577.25;;;-0.65;100.00
51759;BME280;66684;47.568;18.734;2023-01-28T04:28:56;99577.25;;;-0.85;100.00
51759;BME280;66684;47.568;18.734;2023-01-28T04:31:22;99581.81;;;-0.71;100.00
51759;BME280;66684;47.568;18.734;2023-01-28T04:33:48;99584.47;;;-0.69;100.00
51759;BME280;66684;47.568;18.734;2023-01-28T04:36:15;99581.06;;;-0.60;100.00
51759;BME280;66684;47.568;18.734;2023-01-28T04:38:41;99596.41;;;-0.78;100.00
51759;BME280;66684;47.568;18.734;2023-01-28T04:41:07;99584.75;;;-0.66;100.00
51759;BME280;66684;47.568;18.734;2023-01-28T04:43:33;99588.66;;;-0.70;100.00
51759;BME280;66684;47.568;18.734;2023-01-28T04:45:59;99589.19;;;-0.64;100.00
51759;BME280;66684;47.568;18.734;2023-01-28T04:48:25;99590.47;;;-0.69;100.00
51759;BME280;66684;47.568;18.734;2023-01-28T04:50:50;99593.50;;;-0.52;100.00
51759;BME280;66684;47.568;18.734;2023-01-28T04:53:16;99594.75;;;-0.58;100.00
51759;BME280;66684;47.568;18.734;2023-01-28T04:55:44;99594.50;;;-0.50;100.00
51759;BME280;66684;47.568;18.734;2023-01-28T04:58:09;99595.28;;;-0.51;100.00
51759;BME280;66684;47.568;18.734;2023-01-28T05:00:35;99602.13;;;-0.50;100.00
51759;BME280;66684;47.568;18.734;2023-01-28T05:03:01;99599.72;;;-0.59;100.00
51759;BME280;66684;47.568;18.734;2023-01-28T05:05:27;99598.97;;;-0.68;100.00
51759;BME280;66684;47.568;18.734;2023-01-28T05:07:54;99594.91;;;-0.66;100.00
51759;BME280;66684;47.568;18.734;2023-01-28T05:10:21;99601.12;;;-0.63;100.00
51759;BME280;66684;47.568;18.734;2023-01-28T05:12:47;99598.81;;;-0.70;100.00
51759;BME280;66684;47.568;18.734;2023-01-28T05:15:15;99597.56;;;-0.65;100.00
51759;BME280;66684;47.568;18.734;2023-01-28T05:17:42;99602.63;;;-0.65;100.00
51759;BME280;66684;47.568;18.734;2023-01-28T05:20:09;99602.63;;;-0.65;100.00
51759;BME280;66684;47.568;18.734;2023-01-28T05:22:35;99614.94;;;-0.59;100.00
51759;BME280;66684;47.568;18.734;2023-01-28T05:25:01;99611.78;;;-0.57;100.00
51759;BME280;66684;47.568;18.734;2023-01-28T05:27:29;99613.75;;;-0.83;100.00
51759;BME280;66684;47.568;18.734;2023-01-28T05:29:55;99608.69;;;-0.83;100.00
51759;BME280;66684;47.568;18.734;2023-01-28T05:32:21;99617.34;;;-0.71;100.00
51759;BME280;66684;47.568;18.734;2023-01-28T05:35:05;99617.53;;;-0.88;100.00
51759;BME280;66684;47.568;18.734;2023-01-28T05:37:31;99618.59;;;-0.76;100.00
51759;BME280;66684;47.568;18.734;2023-01-28T05:39:57;99619.37;;;-0.67;100.00
51759;BME280;66684;47.568;18.734;2023-01-28T05:42:23;99620.59;;;-0.82;100.00
51759;BME280;66684;47.568;18.734;2023-01-28T05:44:49;99624.78;;;-0.83;100.00
51759;BME280;66684;47.568;18.734;2023-01-28T05:47:15;99622.91;;;-0.85;100.00
51759;BME280;66684;47.568;18.734;2023-01-28T05:49:41;99630.47;;;-0.95;100.00
51759;BME280;66684;47.568;18.734;2023-01-28T05:52:07;99628.69;;;-0.96;100.00
51759;BME280;66684;47.568;18.734;2023-01-28T05:54:33;99631.22;;;-0.96;100.00
51759;BME280;66684;47.568;18.734;2023-01-28T05:56:59;99630.38;;;-0.87;100.00
51759;BME280;66684;47.568;18.734;2023-01-28T05:59:25;99631.00;;;-0.89;100.00
51759;BME280;66684;47.568;18.734;2023-01-28T06:01:51;99632.41;;;-0.93;100.00
51759;BME280;66684;47.568;18.734;2023-01-28T06:04:17;99629.50;;;-0.87;100.00
51759;BME280;66684;47.568;18.734;2023-01-28T06:06:45;99630.50;;;-0.85;100.00
51759;BME280;66684;47.568;18.734;2023-01-28T06:09:11;99630.47;;;-0.95;100.00
51759;BME280;66684;47.568;18.734;2023-01-28T06:11:36;99629.22;;;-0.90;100.00
51759;BME280;66684;47.568;18.734;2023-01-28T06:14:02;99639.00;;;-0.85;100.00
51759;BME280;66684;47.568;18.734;2023-01-28T06:16:28;99640.91;;;-0.82;100.00
51759;BME280;66684;47.568;18.734;2023-01-28T06:18:54;99642.94;;;-0.78;100.00
51759;BME280;66684;47.568;18.734;2023-01-28T06:21:20;99645.50;;;-0.78;100.00
51759;BME280;66684;47.568;18.734;2023-01-28T06:23:46;99649.78;;;-0.87;100.00
51759;BME280;66684;47.568;18.734;2023-01-28T06:26:12;99647.97;;;-0.88;100.00
51759;BME280;66684;47.568;18.734;2023-01-28T06:28:38;99649.56;;;-0.80;100.00
51759;BME280;66684;47.568;18.734;2023-01-28T06:31:03;99647.50;;;-0.84;100.00
51759;BME280;66684;47.568;18.734;2023-01-28T06:33:29;99653.34;;;-0.85;100.00
51759;BME280;66684;47.568;18.734;2023-01-28T06:35:57;99661.34;;;-0.80;100.00
51759;BME280;66684;47.568;18.734;2023-01-28T06:38:23;99661.84;;;-0.85;100.00
51759;BME280;66684;47.568;18.734;2023-01-28T06:40:52;99668.28;;;-0.88;100.00
51759;BME280;66684;47.568;18.734;2023-01-28T06:43:21;99665.75;;;-0.88;100.00
51759;BME280;66684;47.568;18.734;2023-01-28T06:46:01;99677.19;;;-0.83;100.00
51759;BME280;66684;47.568;18.734;2023-01-28T06:48:27;99667.84;;;-0.74;100.00
51759;BME280;66684;47.568;18.734;2023-01-28T06:50:53;99678.16;;;-0.91;100.00
51759;BME280;66684;47.568;18.734;2023-01-28T06:53:20;99678.69;;;-0.85;100.00
51759;BME280;66684;47.568;18.734;2023-01-28T06:55:46;99688.78;;;-0.95;100.00
51759;BME280;66684;47.568;18.734;2023-01-28T06:58:12;99691.09;;;-0.98;100.00
51759;BME280;66684;47.568;18.734;2023-01-28T07:00:38;99691.88;;;-0.89;100.00
51759;BME280;66684;47.568;18.734;2023-01-28T07:03:04;99689.84;;;-0.83;100.00
51759;BME280;66684;47.568;18.734;2023-01-28T07:05:31;99696.41;;;-0.95;100.00
51759;BME280;66684;47.568;18.734;2023-01-28T07:07:56;99695.44;;;-0.87;100.00
51759;BME280;66684;47.568;18.734;2023-01-28T07:10:22;99695.97;;;-0.81;100.00
51759;BME280;66684;47.568;18.734;2023-01-28T07:12:48;99707.84;;;-0.90;100.00
51759;BME280;66684;47.568;18.734;2023-01-28T07:15:14;99702.28;;;-0.86;100.00
51759;BME280;66684;47.568;18.734;2023-01-28T07:17:41;99702.28;;;-0.86;100.00
51759;BME280;66684;47.568;18.734;2023-01-28T07:20:08;99708.84;;;-0.98;100.00
51759;BME280;66684;47.568;18.734;2023-01-28T07:22:36;99713.84;;;-1.09;100.00
51759;BME280;66684;47.568;18.734;2023-01-28T07:25:04;99712.63;;;-1.03;100.00
51759;BME280;66684;47.568;18.734;2023-01-28T07:27:31;99713.56;;;-0.93;100.00
51759;BME280;66684;47.568;18.734;2023-01-28T07:29:56;99713.44;;;-0.94;100.00
51759;BME280;66684;47.568;18.734;2023-01-28T07:32:22;99715.75;;;-0.77;100.00
51759;BME280;66684;47.568;18.734;2023-01-28T07:34:51;99718.94;;;-0.79;100.00
51759;BME280;66684;47.568;18.734;2023-01-28T07:37:17;99719.81;;;-0.79;100.00
51759;BME280;66684;47.568;18.734;2023-01-28T07:39:43;99725.94;;;-0.67;100.00
51759;BME280;66684;47.568;18.734;2023-01-28T07:42:09;99723.06;;;-0.61;100.00
51759;BME280;66684;47.568;18.734;2023-01-28T07:44:35;99720.69;;;-0.78;100.00
51759;BME280;66684;47.568;18.734;2023-01-28T07:47:02;99719.72;;;-0.70;100.00
51759;BME280;66684;47.568;18.734;2023-01-28T07:49:28;99731.28;;;-0.64;100.00
51759;BME280;66684;47.568;18.734;2023-01-28T07:51:54;99727.78;;;-0.45;100.00
51759;BME280;66684;47.568;18.734;2023-01-28T07:54:20;99729.31;;;-0.47;100.00
51759;BME280;66684;47.568;18.734;2023-01-28T07:56:46;99724.72;;;-0.51;100.00
51759;BME280;66684;47.568;18.734;2023-01-28T07:59:12;99734.84;;;-0.62;100.00
51759;BME280;66684;47.568;18.734;2023-01-28T08:01:38;99730.56;;;-0.52;100.00
51759;BME280;66684;47.568;18.734;2023-01-28T08:04:04;99734.84;;;-0.62;100.00
51759;BME280;66684;47.568;18.734;2023-01-28T08:06:30;99739.78;;;-0.24;100.00
51759;BME280;66684;47.568;18.734;2023-01-28T08:09:05;99737.72;;;-0.28;100.00
51759;BME280;66684;47.568;18.734;2023-01-28T08:11:33;99730.56;;;-0.52;100.00
51759;BME280;66684;47.568;18.734;2023-01-28T08:14:00;99740.97;;;-0.49;100.00
51759;BME280;66684;47.568;18.734;2023-01-28T08:16:26;99743.00;;;-0.45;100.00
51759;BME280;66684;47.568;18.734;2023-01-28T08:18:53;99750.91;;;-0.42;100.00
51759;BME280;66684;47.568;18.734;2023-01-28T08:21:20;99756.38;;;-0.28;100.00
51759;BME280;66684;47.568;18.734;2023-01-28T08:23:46;99754.34;;;-0.21;100.00
51759;BME280;66684;47.568;18.734;2023-01-28T08:26:12;99755.56;;;-0.47;100.00
51759;BME280;66684;47.568;18.734;2023-01-28T08:28:37;99750.00;;;-0.43;100.00
51759;BME280;66684;47.568;18.734;2023-01-28T08:31:03;99763.25;;;-0.66;100.00
51759;BME280;66684;47.568;18.734;2023-01-28T08:33:29;99762.53;;;-0.55;100.00
51759;BME280;66684;47.568;18.734;2023-01-28T08:35:55;99756.09;;;-0.41;100.00
51759;BME280;66684;47.568;18.734;2023-01-28T08:38:21;99755.44;;;-0.48;100.00
51759;BME280;66684;47.568;18.734;2023-01-28T08:40:48;99758.75;;;-0.39;100.00
51759;BME280;66684;47.568;18.734;2023-01-28T08:43:20;99753.03;;;-0.47;100.00
51759;BME280;66684;47.568;18.734;2023-01-28T08:45:46;99759.06;;;-0.65;100.00
51759;BME280;66684;47.568;18.734;2023-01-28T08:48:15;99754.16;;;-0.53;100.00
51759;BME280;66684;47.568;18.734;2023-01-28T08:50:42;99762.00;;;-0.61;100.00
51759;BME280;66684;47.568;18.734;2023-01-28T08:53:12;99759.59;;;-0.59;100.00
51759;BME280;66684;47.568;18.734;2023-01-28T08:55:38;99768.00;;;-0.79;100.00
51759;BME280;66684;47.568;18.734;2023-01-28T08:58:06;99762.66;;;-0.82;100.00
51759;BME280;66684;47.568;18.734;2023-01-28T09:00:33;99762.47;;;-0.65;100.00
51759;BME280;66684;47.568;18.734;2023-01-28T09:02:59;99757.97;;;-0.48;100.00
51759;BME280;66684;47.568;18.734;2023-01-28T09:05:25;99753.97;;;-0.36;100.00
51759;BME280;66684;47.568;18.734;2023-01-28T09:07:51;99760.75;;;-0.45;100.00
51759;BME280;66684;47.568;18.734;2023-01-28T09:10:17;99750.25;;;-0.50;100.00
51759;BME280;66684;47.568;18.734;2023-01-28T09:12:45;99758.16;;;-0.37;100.00
51759;BME280;66684;47.568;18.734;2023-01-28T09:15:11;99761.28;;;-0.49;100.00
51759;BME280;66684;47.568;18.734;2023-01-28T09:17:38;99757.50;;;-0.34;100.00
51759;BME280;66684;47.568;18.734;2023-01-28T09:20:05;99762.88;;;-0.21;100.00
51759;BME280;66684;47.568;18.734;2023-01-28T09:22:32;99770.66;;;0.11;100.00
51759;BME280;66684;47.568;18.734;2023-01-28T09:24:58;99772.56;;;0.04;100.00
51759;BME280;66684;47.568;18.734;2023-01-28T09:27:24;99773.41;;;-0.16;100.00
51759;BME280;66684;47.568;18.734;2023-01-28T09:29:50;99776.59;;;-0.09;100.00
51759;BME280;66684;47.568;18.734;2023-01-28T09:32:16;99774.44;;;-0.14;100.00
51759;BME280;66684;47.568;18.734;2023-01-28T09:34:42;99780.91;;;-0.18;100.00
51759;BME280;66684;47.568;18.734;2023-01-28T09:37:10;99779.03;;;-0.10;100.00
51759;BME280;66684;47.568;18.734;2023-01-28T09:39:36;99783.22;;;-0.01;100.00
51759;BME280;66684;47.568;18.734;2023-01-28T09:47:39;99785.63;;;-0.12;100.00
51759;BME280;66684;47.568;18.734;2023-01-28T09:50:11;99782.69;;;-0.17;100.00
51759;BME280;66684;47.568;18.734;2023-01-28T09:52:39;99787.78;;;-0.17;100.00
51759;BME280;66684;47.568;18.734;2023-01-28T09:55:16;99778.66;;;-0.05;100.00
51759;BME280;66684;47.568;18.734;2023-01-28T09:57:51;99784.25;;;0.02;100.00
51759;BME280;66684;47.568;18.734;2023-01-28T10:00:21;99780.31;;;0.05;100.00
51759;BME280;66684;47.568;18.734;2023-01-28T10:03:02;99786.28;;;0.16;100.00
51759;BME280;66684;47.568;18.734;2023-01-28T10:06:04;99788.69;;;0.04;100.00
51759;BME280;66684;47.568;18.734;2023-01-28T10:11:53;99782.22;;;0.08;100.00
51759;BME280;66684;47.568;18.734;2023-01-28T10:17:20;99783.09;;;0.18;100.00
51759;BME280;66684;47.568;18.734;2023-01-28T10:19:49;99783.25;;;0.20;100.00
51759;BME280;66684;47.568;18.734;2023-01-28T10:22:27;99783.50;;;0.13;100.00
51759;BME280;66684;47.568;18.734;2023-01-28T10:24:56;99787.66;;;0.12;100.00
51759;BME280;66684;47.568;18.734;2023-01-28T10:27:32;99781.19;;;0.06;100.00
51759;BME280;66684;47.568;18.734;2023-01-28T10:29:59;99785.91;;;0.11;100.00
51759;BME280;66684;47.568;18.734;2023-01-28T10:32:37;99773.44;;;-0.06;100.00
51759;BME280;66684;47.568;18.734;2023-01-28T10:35:07;99785.66;;;0.08;100.00
51759;BME280;66684;47.568;18.734;2023-01-28T10:37:34;99779.91;;;-0.10;100.00
51759;BME280;66684;47.568;18.734;2023-01-28T10:40:03;99789.41;;;-0.07;100.00
51759;BME280;66684;47.568;18.734;2023-01-28T10:42:35;99774.78;;;-0.20;100.00
51759;BME280;66684;47.568;18.734;2023-01-28T10:45:22;99775.59;;;-0.01;100.00
51759;BME280;66684;47.568;18.734;2023-01-28T10:48:02;99775.00;;;0.22;100.00
51759;BME280;66684;47.568;18.734;2023-01-28T10:50:31;99768.50;;;0.36;100.00
51759;BME280;66684;47.568;18.734;2023-01-28T10:53:05;99780.84;;;0.32;100.00
51759;BME280;66684;47.568;18.734;2023-01-28T10:55:36;99776.38;;;0.49;100.00
51759;BME280;66684;47.568;18.734;2023-01-28T10:58:17;99777.25;;;0.50;100.00
51759;BME280;66684;47.568;18.734;2023-01-28T11:00:45;99780.19;;;0.54;100.00
51759;BME280;66684;47.568;18.734;2023-01-28T11:03:17;99777.91;;;0.47;100.00
51759;BME280;66684;47.568;18.734;2023-01-28T11:05:50;99780.47;;;0.58;100.00
51759;BME280;66684;47.568;18.734;2023-01-28T11:08:18;99781.72;;;0.52;100.00
51759;BME280;66684;47.568;18.734;2023-01-28T11:10:45;99780.97;;;0.64;100.00
51759;BME280;66684;47.568;18.734;2023-01-28T11:13:26;99783.25;;;0.71;100.00
51759;BME280;66684;47.568;18.734;2023-01-28T11:16:16;99775.56;;;0.81;100.00
51759;BME280;66684;47.568;18.734;2023-01-28T11:18:50;99779.31;;;1.06;100.00
51759;BME280;66684;47.568;18.734;2023-01-28T11:21:20;99774.78;;;0.92;100.00
51759;BME280;66684;47.568;18.734;2023-01-28T11:23:51;99766.84;;;0.67;100.00
51759;BME280;66684;47.568;18.734;2023-01-28T11:26:26;99781.34;;;0.58;100.00
51759;BME280;66684;47.568;18.734;2023-01-28T11:28:54;99769.25;;;0.66;100.00
51759;BME280;66684;47.568;18.734;2023-01-28T11:31:22;99770.97;;;0.87;100.00
51759;BME280;66684;47.568;18.734;2023-01-28T11:33:53;99766.72;;;0.76;100.00
51759;BME280;66684;47.568;18.734;2023-01-28T11:36:32;99763.66;;;0.70;100.00
51759;BME280;66684;47.568;18.734;2023-01-28T11:39:16;99768.72;;;0.80;100.00
51759;BME280;66684;47.568;18.734;2023-01-28T11:41:43;99761.81;;;0.99;100.00
51759;BME280;66684;47.568;18.734;2023-01-28T11:44:18;99770.56;;;1.03;100.00
51759;BME280;66684;47.568;18.734;2023-01-28T11:47:07;99765.88;;;1.07;100.00
51759;BME280;66684;47.568;18.734;2023-01-28T11:49:50;99768.44;;;0.97;100.00
51759;BME280;66684;47.568;18.734;2023-01-28T11:52:50;99768.44;;;0.97;100.00
51759;BME280;66684;47.568;18.734;2023-01-28T12:01:12;99759.03;;;0.86;100.00
51759;BME280;66684;47.568;18.734;2023-01-28T12:15:06;99759.47;;;1.13;100.00
51759;BME280;66684;47.568;18.734;2023-01-28T12:18:09;99759.44;;;1.23;100.00
51759;BME280;66684;47.568;18.734;2023-01-28T12:45:36;99755.41;;;1.69;100.00
51759;BME280;66684;47.568;18.734;2023-01-28T12:48:03;99752.75;;;1.67;100.00
51759;BME280;66684;47.568;18.734;2023-01-28T12:50:44;99758.06;;;1.48;100.00
51759;BME280;66684;47.568;18.734;2023-01-28T12:55:55;99761.12;;;1.88;100.00
51759;BME280;66684;47.568;18.734;2023-01-28T12:58:34;99775.78;;;1.69;100.00
51759;BME280;66684;47.568;18.734;2023-01-28T13:01:06;99769.16;;;1.71;100.00
51759;BME280;66684;47.568;18.734;2023-01-28T13:03:57;99775.44;;;1.86;100.00
51759;BME280;66684;47.568;18.734;2023-01-28T13:06:55;99769.50;;;1.53;100.00
51759;BME280;66684;47.568;18.734;2023-01-28T13:09:21;99778.22;;;1.35;100.00
51759;BME280;66684;47.568;18.734;2023-01-28T13:11:51;99776.91;;;1.72;100.00
51759;BME280;66684;47.568;18.734;2023-01-28T13:14:20;99774.00;;;1.68;100.00
51759;BME280;66684;47.568;18.734;2023-01-28T13:16:48;99768.03;;;1.67;100.00
51759;BME280;66684;47.568;18.734;2023-01-28T13:21:43;99770.13;;;1.51;100.00
51759;BME280;66684;47.568;18.734;2023-01-28T13:26:52;99778.09;;;1.66;100.00
51759;BME280;66684;47.568;18.734;2023-01-28T13:31:47;99780.50;;;1.42;100.00
51759;BME280;66684;47.568;18.734;2023-01-28T13:34:33;99787.13;;;1.40;100.00
51759;BME280;66684;47.568;18.734;2023-01-28T13:37:27;99788.09;;;1.52;100.00
51759;BME280;66684;47.568;18.734;2023-01-28T13:42:41;99805.22;;;1.33;100.00
51759;BME280;66684;47.568;18.734;2023-01-28T13:47:52;99801.66;;;1.31;100.00
51759;BME280;66684;47.568;18.734;2023-01-28T13:50:22;99803.72;;;1.25;100.00
51759;BME280;66684;47.568;18.734;2023-01-28T13:52:58;99805.25;;;1.23;100.00
51759;BME280;66684;47.568;18.734;2023-01-28T13:55:30;99810.06;;;1.30;100.00
51759;BME280;66684;47.568;18.734;2023-01-28T14:19:22;99820.50;;;1.33;100.00
51759;BME280;66684;47.568;18.734;2023-01-28T14:21:52;99834.78;;;1.21;100.00
51759;BME280;66684;47.568;18.734;2023-01-28T14:24:18;99838.09;;;1.20;100.00
51759;BME280;66684;47.568;18.734;2023-01-28T14:32:04;99836.34;;;1.08;100.00
51759;BME280;66684;47.568;18.734;2023-01-28T14:34:33;99826.44;;;1.01;100.00
51759;BME280;66684;47.568;18.734;2023-01-28T14:37:04;99835.31;;;1.06;100.00
51759;BME280;66684;47.568;18.734;2023-01-28T14:39:38;99836.97;;;1.16;100.00
51759;BME280;66684;47.568;18.734;2023-01-28T14:42:15;99839.38;;;1.15;100.00
51759;BME280;66684;47.568;18.734;2023-01-28T14:44:43;99849.28;;;1.22;100.00
51759;BME280;66684;47.568;18.734;2023-01-28T14:53:38;99848.28;;;1.20;100.00